EDDS/STR METAR and TAF weather

Enter ICAO airport designator
Station Type Date Time Source
EDDS METAR 2020/09/25 20:50 UTC NOAA

EDDS 252050Z 25009KT 210V270 9999 FEW017 BKN030 09/05 Q1001


Station Type Date Time Source
EDDS Decoded METAR 2020/09/25 20:50 UTC NOAA

Stuttgart-Echterdingen, Germany (EDDS) 48-41N 009-13E 391M
Sep 25, 2020 - 04:50 PM EDT / 2020.09.25 2050 UTC
Wind: from the WSW (250 degrees) at 10 MPH (9 KT) (direction variable):0
Visibility: greater than 7 mile(s):0
Sky conditions: mostly cloudy
Temperature: 48 F (9 C)
Dew Point: 41 F (5 C)
Relative Humidity: 75%
Pressure (altimeter): 29.56 in. Hg (1001 hPa)
ob: EDDS 252050Z 25009KT 210V270 9999 FEW017 BKN030 09/05 Q1001
cycle: 21

Station Type Date Time Source
EDDS TAF 2020/09/25 18:27 UTC NOAA

TAF EDDS 251700Z 2518/2618 21006KT 9999 FEW020 SCT040
BECMG 2602/2604 24011KT
TEMPO 2608/2618 25015G25KT RADZ

Example: see airport list